Time;durP1;ratioP1;P1;durP2;ratioP2;P2;SDS_P1;SDS_P2;PMS_P1;PMS_P2;Temp;Humidity;BMP_temperature;BMP_pressure;BME280_temperature;BME280_humidity;BME280_pressure;Samples;Min_cycle;Max_cycle;Signal;HPM_P1;HPM_P2
2021/12/25 00:00:16;;;;;;;2.20;0.80;;;;;;;19.85;23.32;96833.44;5014370;28;20120;-76
2021/12/25 00:02:43;;;;;;;1.55;0.70;;;;;;;20.02;23.29;96832.97;5014807;28;20034;-76
2021/12/25 00:05:10;;;;;;;2.53;1.17;;;;;;;19.94;23.34;96831.59;5014458;28;20042;-76
2021/12/25 00:07:36;;;;;;;2.30;0.98;;;;;;;19.60;23.63;96827.69;5014402;28;20510;-76
2021/12/25 00:10:04;;;;;;;1.10;0.75;;;;;;;18.12;25.81;96848.19;5014681;28;20040;-76
2021/12/25 00:12:30;;;;;;;1.42;0.80;;;;;;;17.25;26.90;96845.59;5014578;28;20478;-76
2021/12/25 00:14:57;;;;;;;2.15;1.00;;;;;;;16.62;27.89;96840.91;5014267;28;20056;-76
2021/12/25 00:17:23;;;;;;;2.13;0.90;;;;;;;16.06;28.72;96840.25;5015094;28;20397;-76
2021/12/25 00:19:49;;;;;;;1.65;1.08;;;;;;;17.24;27.23;96830.97;5013838;28;20382;-76
2021/12/25 00:22:15;;;;;;;1.17;0.85;;;;;;;18.55;25.25;96828.78;5014110;28;20088;-76
2021/12/25 00:24:44;;;;;;;1.17;1.00;;;;;;;19.08;24.68;96831.22;5014413;28;20030;-76
2021/12/25 00:30:26;;;;;;;2.70;1.63;;;;;;;19.50;23.94;96839.84;5013670;28;20044;-76
2021/12/25 00:33:03;;;;;;;2.63;1.27;;;;;;;19.87;23.40;96847.69;4999388;28;20034;-76
2021/12/25 00:35:29;;;;;;;5.95;1.52;;;;;;;19.67;23.81;96860.94;4992802;28;20057;-76
2021/12/25 00:37:55;;;;;;;3.78;1.75;;;;;;;19.24;24.09;96872.22;5011473;28;20033;-76
2021/12/25 00:40:22;;;;;;;2.03;1.20;;;;;;;18.82;24.60;96861.97;5012883;28;20113;-76
2021/12/25 00:42:49;;;;;;;2.30;1.33;;;;;;;20.10;22.92;96866.22;5012511;28;20449;-76
2021/12/25 00:45:15;;;;;;;2.58;1.13;;;;;;;19.74;23.33;96866.34;4994490;28;20069;-76
2021/12/25 00:47:41;;;;;;;3.35;1.52;;;;;;;18.86;24.74;96880.16;4994361;28;20041;-76
2021/12/25 00:50:08;;;;;;;5.32;1.23;;;;;;;18.87;24.41;96883.72;4994663;28;20026;-76
2021/12/25 00:52:34;;;;;;;1.27;1.02;;;;;;;18.30;25.32;96887.53;5011264;28;20389;-76
2021/12/25 00:55:03;;;;;;;2.10;0.80;;;;;;;18.53;25.01;96895.88;5013750;28;20034;-76
2021/12/25 00:57:29;;;;;;;2.10;1.23;;;;;;;19.46;23.85;96897.63;5013842;28;20033;-76
2021/12/25 00:59:55;;;;;;;2.80;1.42;;;;;;;19.40;23.80;96902.91;5013772;28;20470;-76
2021/12/25 01:02:21;;;;;;;2.40;1.42;;;;;;;19.40;23.64;96910.44;5014001;28;20022;-76
2021/12/25 01:04:47;;;;;;;1.80;1.27;;;;;;;20.06;23.29;96921.28;5013683;28;20128;-77
2021/12/25 01:07:14;;;;;;;4.32;1.70;;;;;;;19.37;23.72;96914.88;5013620;28;20398;-76
2021/12/25 01:09:40;;;;;;;5.20;1.88;;;;;;;19.68;23.30;96915.38;5013541;28;20041;-76
2021/12/25 01:12:07;;;;;;;3.70;1.52;;;;;;;18.70;24.62;96924.56;5012335;28;20076;-76
2021/12/25 01:14:46;;;;;;;4.18;1.65;;;;;;;18.93;24.58;96932.06;5013621;28;20075;-76
2021/12/25 01:20:13;;;;;;;3.70;1.70;;;;;;;19.13;24.02;96944.78;5006640;28;20034;-76
2021/12/25 01:25:48;;;;;;;4.28;1.90;;;;;;;18.54;24.87;96966.94;5007546;28;20101;-76
2021/12/25 01:31:21;;;;;;;4.22;1.92;;;;;;;17.31;26.39;96959.66;5013870;28;20100;-74
2021/12/25 01:34:23;;;;;;;3.97;1.88;;;;;;;18.83;24.41;96972.00;5009516;28;20471;-74
2021/12/25 01:36:53;;;;;;;4.00;1.80;;;;;;;18.70;24.48;96959.91;5013138;28;20516;-74
2021/12/25 01:39:28;;;;;;;2.55;1.33;;;;;;;18.88;24.44;96961.16;5013691;28;20030;-74
2021/12/25 01:42:07;;;;;;;2.33;1.40;;;;;;;19.49;23.60;96966.31;5008807;28;20027;-76
2021/12/25 01:49:55;;;;;;;2.20;1.25;;;;;;;18.18;25.24;96968.72;5031509;28;20382;-76
2021/12/25 01:52:26;;;;;;;4.07;1.50;;;;;;;18.94;24.42;96978.16;5017119;28;20056;-75
2021/12/25 01:54:53;;;;;;;;;;;;;;;19.44;23.38;96975.19;5017260;28;20026;-76
2021/12/25 01:57:21;;;;;;;1.92;1.50;;;;;;;19.64;23.14;96975.97;5015964;28;19913;-77
2021/12/25 01:59:47;;;;;;;2.40;1.33;;;;;;;19.58;23.20;96983.25;5017063;28;20027;-76
2021/12/25 02:02:14;;;;;;;3.15;1.85;;;;;;;19.37;23.39;96981.69;5015557;28;20505;-77
2021/12/25 02:04:40;;;;;;;4.85;1.88;;;;;;;19.65;22.76;96983.09;5016805;28;20585;-77
2021/12/25 02:07:07;;;;;;;1.98;1.63;;;;;;;20.58;22.03;96980.53;5016901;28;20125;-77
2021/12/25 02:09:33;;;;;;;3.28;2.10;;;;;;;20.73;21.56;96981.72;5016814;28;20030;-76
2021/12/25 02:11:59;;;;;;;2.20;1.50;;;;;;;20.46;21.79;96978.44;5016872;28;20033;-77
2021/12/25 02:14:26;;;;;;;3.58;1.95;;;;;;;21.29;20.94;96973.84;5017084;28;20108;-76
2021/12/25 02:16:57;;;;;;;6.43;2.80;;;;;;;21.03;20.95;96981.31;5016782;28;20065;-77
2021/12/25 02:22:19;;;;;;;2.20;1.40;;;;;;;19.42;23.05;97002.69;5014660;28;20037;-77
2021/12/25 02:24:46;;;;;;;2.33;1.48;;;;;;;19.80;22.77;97018.56;5016408;28;20096;-76
2021/12/25 02:27:12;;;;;;;3.95;1.90;;;;;;;19.96;22.70;97007.47;5015322;28;20536;-77
2021/12/25 02:29:39;;;;;;;2.35;1.45;;;;;;;21.03;21.41;97014.81;5016910;28;20057;-76
2021/12/25 02:32:05;;;;;;;3.97;1.77;;;;;;;21.18;20.79;97016.03;5016524;28;20034;-77
2021/12/25 02:34:31;;;;;;;5.43;2.33;;;;;;;20.40;21.77;97017.19;5012455;28;20104;-77
2021/12/25 02:36:58;;;;;;;1.75;1.55;;;;;;;19.93;22.21;97019.44;5015138;28;20033;-77
2021/12/25 02:39:24;;;;;;;3.45;2.05;;;;;;;20.88;21.28;97024.00;5016339;28;20037;-76
2021/12/25 02:41:50;;;;;;;3.35;1.95;;;;;;;20.71;21.46;97034.38;5001205;28;20041;-76
2021/12/25 02:44:16;;;;;;;2.13;1.45;;;;;;;20.94;21.31;97027.81;4996724;28;20023;-76
2021/12/25 02:46:43;;;;;;;3.00;1.80;;;;;;;20.83;21.11;97019.72;4996555;28;20026;-76
2021/12/25 02:49:12;;;;;;;1.48;1.38;;;;;;;21.61;20.46;97032.38;4996614;28;20035;-77
2021/12/25 02:51:39;;;;;;;3.63;1.98;;;;;;;21.49;20.49;97046.31;4996190;28;20467;-77
2021/12/25 02:54:05;;;;;;;2.78;1.60;;;;;;;21.00;20.93;97045.59;5014102;28;20375;-77
2021/12/25 02:56:31;;;;;;;2.40;1.52;;;;;;;19.12;23.24;97043.38;5016321;28;20022;-76
2021/12/25 02:58:57;;;;;;;2.25;1.65;;;;;;;19.03;23.44;97054.25;5013409;28;20083;-76
2021/12/25 03:01:24;;;;;;;2.33;1.73;;;;;;;19.96;22.42;97056.81;5003016;28;20031;-77
2021/12/25 03:03:50;;;;;;;3.20;2.20;;;;;;;20.07;22.31;97054.56;4996214;28;20041;-77
2021/12/25 03:06:16;;;;;;;3.60;2.15;;;;;;;19.74;22.68;97055.72;5004250;28;20038;-77
2021/12/25 03:08:43;;;;;;;4.07;2.10;;;;;;;19.92;22.41;97062.47;5015896;28;20113;-77
2021/12/25 03:11:13;;;;;;;4.40;2.65;;;;;;;19.95;22.51;97067.16;5014377;28;20105;-76
2021/12/25 03:13:57;;;;;;;2.08;1.85;;;;;;;19.12;23.56;97076.75;5011704;28;20034;-76
2021/12/25 03:16:24;;;;;;;5.05;2.42;;;;;;;19.37;23.32;97072.75;4996394;28;20073;-77
2021/12/25 03:18:54;;;;;;;2.40;1.90;;;;;;;19.26;23.21;97084.03;5006276;28;20128;-77
2021/12/25 03:21:20;;;;;;;4.07;1.83;;;;;;;19.31;23.29;97078.78;5010367;28;20080;-76
2021/12/25 03:23:49;;;;;;;3.13;1.80;;;;;;;19.53;23.02;97079.19;5014644;28;20088;-77
2021/12/25 03:26:16;;;;;;;2.00;1.10;;;;;;;17.67;25.26;97092.00;5014765;28;20464;-75
2021/12/25 03:28:44;;;;;;;2.20;1.65;;;;;;;18.06;24.76;97085.19;5015415;28;20034;-74
2021/12/25 03:31:16;;;;;;;2.92;1.70;;;;;;;17.96;24.72;97073.00;5015553;28;20033;-74
2021/12/25 03:33:48;;;;;;;3.05;1.92;;;;;;;17.64;25.19;97075.41;5013971;28;20041;-74
2021/12/25 03:36:15;;;;;;;2.30;1.60;;;;;;;17.34;25.94;97083.66;5014977;28;20038;-75
2021/12/25 03:38:42;;;;;;;2.30;1.65;;;;;;;18.42;24.60;97087.03;5015255;28;20026;-74
2021/12/25 03:41:08;;;;;;;2.22;2.03;;;;;;;18.66;24.11;97093.44;5015267;28;20056;-76
2021/12/25 03:43:38;;;;;;;2.28;2.03;;;;;;;18.15;24.77;97105.69;5014934;28;20041;-76
2021/12/25 03:46:04;;;;;;;3.13;1.90;;;;;;;18.97;23.86;97105.25;5015045;28;20026;-77
2021/12/25 03:59:28;;;;;;;4.50;2.60;;;;;;;20.41;21.72;97096.06;4995969;28;20041;-74
2021/12/25 04:02:00;;;;;;;3.92;2.50;;;;;;;20.76;21.40;97116.75;5012074;28;20026;-74
2021/12/25 04:04:34;;;;;;;3.60;1.98;;;;;;;20.34;21.81;97118.53;5014937;28;20128;-75
2021/12/25 04:07:09;;;;;;;3.00;2.05;;;;;;;20.42;21.86;97119.94;5013501;28;20133;-74
2021/12/25 04:09:38;;;;;;;4.43;2.78;;;;;;;19.68;22.76;97136.16;5010934;28;20076;-74
2021/12/25 04:12:10;;;;;;;4.80;2.65;;;;;;;20.16;22.17;97141.19;5013899;28;20481;-74
2021/12/25 04:14:37;;;;;;;2.95;2.08;;;;;;;20.72;21.46;97141.94;5007909;28;20038;-76
2021/12/25 04:17:03;;;;;;;3.80;2.63;;;;;;;21.00;21.21;97141.28;5007490;28;20026;-76
2021/12/25 04:19:29;;;;;;;2.28;1.73;;;;;;;21.39;20.83;97157.06;5014216;28;20038;-76
2021/12/25 04:24:24;;;;;;;2.88;2.25;;;;;;;21.10;21.16;97161.78;5014658;28;20052;-76
2021/12/25 04:26:51;;;;;;;5.15;3.38;;;;;;;20.97;20.96;97167.25;5014480;28;20557;-76
2021/12/25 04:47:45;;;;;;;3.38;1.38;;;;;;;9.63;36.50;97225.03;5014356;28;20045;-76
2021/12/25 05:04:11;;;;;;;1.42;1.08;;;;;;;11.33;32.46;97264.66;4994291;28;20168;-75
2021/12/25 05:06:37;;;;;;;2.25;1.52;;;;;;;9.86;34.66;97269.75;4993986;28;20074;-75
2021/12/25 05:09:04;;;;;;;1.50;1.33;;;;;;;10.29;34.55;97269.50;5004021;28;20033;-74
2021/12/25 05:11:30;;;;;;;1.83;1.38;;;;;;;10.83;33.31;97280.31;5012584;28;20053;-75
2021/12/25 05:13:56;;;;;;;2.03;1.17;;;;;;;10.92;33.38;97283.59;5012444;28;20151;-75
2021/12/25 05:16:22;;;;;;;1.75;1.20;;;;;;;11.38;32.16;97289.88;5006624;28;20433;-75
2021/12/25 05:18:50;;;;;;;1.70;1.50;;;;;;;10.66;32.63;97288.25;4997680;28;20429;-75
2021/12/25 05:21:18;;;;;;;2.28;1.48;;;;;;;11.25;31.68;97285.72;4993690;28;20041;-75
2021/12/25 05:23:44;;;;;;;1.13;1.00;;;;;;;13.01;28.80;97276.22;5007762;28;20072;-75
2021/12/25 05:26:11;;;;;;;1.50;1.02;;;;;;;12.48;29.31;97286.69;5013423;28;20037;-75
2021/12/25 05:28:42;;;;;;;2.17;1.38;;;;;;;12.79;29.15;97283.47;5013355;28;20026;-75
2021/12/25 05:31:11;;;;;;;1.92;1.17;;;;;;;13.95;27.17;97278.13;5011961;28;20092;-75
2021/12/25 05:33:38;;;;;;;1.48;1.00;;;;;;;14.57;26.32;97294.59;5013394;28;20072;-75
2021/12/25 05:36:05;;;;;;;1.83;1.30;;;;;;;15.68;24.36;97292.41;5013813;28;20038;-75
2021/12/25 05:38:33;;;;;;;1.45;1.10;;;;;;;14.98;25.13;97280.09;5013514;28;20045;-74
2021/12/25 05:40:59;;;;;;;2.05;1.25;;;;;;;14.33;25.77;97296.06;5013458;28;20037;-75
2021/12/25 05:43:26;;;;;;;1.50;1.10;;;;;;;14.27;26.03;97308.66;5013218;28;20022;-75
2021/12/25 05:45:52;;;;;;;3.08;1.00;;;;;;;17.22;21.95;97299.31;5011750;28;20125;-75
2021/12/25 05:48:19;;;;;;;1.35;1.20;;;;;;;17.97;21.11;97307.06;5013340;28;20034;-75
2021/12/25 05:50:46;;;;;;;0.82;0.82;;;;;;;18.66;20.46;97301.94;5008529;28;20034;-75
2021/12/25 05:53:12;;;;;;;1.10;1.00;;;;;;;18.91;20.10;97312.75;4993732;28;20026;-75
2021/12/25 05:55:38;;;;;;;1.55;0.98;;;;;;;18.67;20.04;97311.84;4994445;28;20033;-75
2021/12/25 05:58:07;;;;;;;1.65;1.00;;;;;;;19.28;19.74;97323.75;5012230;28;20034;-75
2021/12/25 06:00:35;;;;;;;1.00;0.90;;;;;;;18.78;20.10;97336.75;5012842;28;20069;-75
2021/12/25 06:03:03;;;;;;;1.05;1.00;;;;;;;17.81;20.83;97340.91;4993534;28;20117;-75
2021/12/25 06:05:29;;;;;;;1.00;0.90;;;;;;;13.90;25.77;97349.44;4999505;28;20161;-75
2021/12/25 06:07:55;;;;;;;1.90;1.02;;;;;;;15.11;24.55;97353.19;5011714;28;20107;-75
2021/12/25 06:10:22;;;;;;;1.38;1.05;;;;;;;13.46;25.99;97352.25;5013215;28;20045;-75
2021/12/25 06:12:48;;;;;;;1.10;0.95;;;;;;;12.73;27.73;97370.38;5013467;28;20029;-75
2021/12/25 06:15:19;;;;;;;1.00;0.80;;;;;;;11.77;28.76;97379.28;5012844;28;20041;-75
2021/12/25 06:17:45;;;;;;;1.80;1.10;;;;;;;11.26;29.78;97386.22;5007756;28;20041;-74
2021/12/25 06:20:12;;;;;;;1.50;0.93;;;;;;;13.80;26.38;97375.78;5012953;28;20030;-74
2021/12/25 06:22:38;;;;;;;1.15;1.02;;;;;;;12.81;27.02;97379.50;5012972;28;20255;-75
2021/12/25 06:25:06;;;;;;;0.80;0.80;;;;;;;13.64;25.52;97394.56;5013035;28;20033;-74
2021/12/25 06:27:32;;;;;;;1.67;0.70;;;;;;;13.73;24.93;97401.34;5012900;28;20559;-74
2021/12/25 06:29:58;;;;;;;1.77;0.90;;;;;;;15.40;22.53;97391.97;5012794;28;20105;-74
2021/12/25 06:32:25;;;;;;;1.60;0.82;;;;;;;16.25;21.52;97392.78;5012919;28;20038;-74
2021/12/25 06:34:51;;;;;;;1.45;1.00;;;;;;;17.60;20.25;97396.59;5015166;28;20058;-74
2021/12/25 06:37:18;;;;;;;2.67;0.93;;;;;;;18.69;19.14;97395.66;5016495;28;20109;-74
2021/12/25 06:39:46;;;;;;;0.60;0.60;;;;;;;18.81;18.61;97394.34;5016372;28;20482;-74
2021/12/25 06:42:13;;;;;;;2.17;1.10;;;;;;;18.33;19.16;97398.00;5016407;28;20026;-74
2021/12/25 06:44:39;;;;;;;1.20;0.77;;;;;;;18.71;18.79;97409.16;5016040;28;20066;-74
2021/12/25 06:47:05;;;;;;;1.92;1.00;;;;;;;19.45;18.13;97417.38;5016273;28;20022;-74
2021/12/25 06:49:31;;;;;;;1.02;0.93;;;;;;;20.33;17.43;97420.78;5013416;28;20459;-74
2021/12/25 06:51:57;;;;;;;1.40;1.08;;;;;;;20.27;17.11;97420.50;5015592;28;20022;-74
2021/12/25 06:54:23;;;;;;;1.42;0.85;;;;;;;19.48;17.76;97418.53;5015914;28;20041;-74
2021/12/25 06:56:49;;;;;;;1.83;1.13;;;;;;;19.09;18.32;97421.81;5016212;28;20034;-73
2021/12/25 06:59:16;;;;;;;1.80;1.20;;;;;;;18.88;18.59;97419.28;5011798;28;20088;-74
2021/12/25 07:01:43;;;;;;;1.45;0.90;;;;;;;16.05;21.94;97433.94;5013410;28;20080;-73
2021/12/25 07:04:09;;;;;;;2.38;0.80;;;;;;;13.29;25.10;97438.31;5015793;28;20030;-74
2021/12/25 07:06:36;;;;;;;0.80;0.80;;;;;;;12.46;26.92;97443.19;5015844;28;20046;-74
2021/12/25 07:09:07;;;;;;;1.52;0.98;;;;;;;11.61;28.42;97449.25;5014540;28;20050;-74
2021/12/25 07:11:34;;;;;;;1.50;0.90;;;;;;;11.94;28.18;97449.47;5003097;28;20034;-74
2021/12/25 07:14:03;;;;;;;1.13;0.75;;;;;;;12.93;26.27;97446.16;5014916;28;20289;-74
2021/12/25 07:16:29;;;;;;;2.00;1.30;;;;;;;12.30;26.50;97459.03;5015688;28;20030;-74
2021/12/25 07:18:56;;;;;;;1.30;1.00;;;;;;;11.56;27.85;97463.31;4998455;28;20483;-74
2021/12/25 07:21:22;;;;;;;1.90;1.08;;;;;;;12.04;26.88;97467.31;4995758;28;20074;-74
2021/12/25 07:23:48;;;;;;;1.60;1.20;;;;;;;10.72;28.79;97468.75;4996577;28;20033;-73
2021/12/25 07:26:17;;;;;;;1.90;1.02;;;;;;;11.22;27.99;97473.28;5014759;28;20037;-73
2021/12/25 07:28:48;;;;;;;1.40;1.30;;;;;;;9.36;30.51;97477.97;5004157;28;20035;-74
2021/12/25 07:31:14;;;;;;;2.50;1.48;;;;;;;8.58;31.80;97496.88;4994895;28;20030;-73
2021/12/25 07:33:41;;;;;;;2.78;1.88;;;;;;;8.85;31.78;97483.22;4995643;28;20038;-74
2021/12/25 07:36:10;;;;;;;2.15;1.40;;;;;;;9.39;29.47;97488.22;4995619;28;20084;-73
2021/12/25 07:38:36;;;;;;;1.33;1.20;;;;;;;9.67;29.90;97494.44;4995671;28;20061;-74
2021/12/25 07:41:03;;;;;;;2.10;1.48;;;;;;;9.56;30.06;97502.41;4997518;28;20154;-74
2021/12/25 07:43:29;;;;;;;2.67;1.80;;;;;;;8.03;31.78;97508.41;5013271;28;20124;-73
2021/12/25 07:45:55;;;;;;;6.88;1.90;;;;;;;8.42;31.80;97507.75;5003741;28;20049;-74
2021/12/25 07:48:24;;;;;;;2.72;1.65;;;;;;;9.39;29.77;97510.13;5014986;28;20060;-74
2021/12/25 07:50:51;;;;;;;3.33;1.67;;;;;;;9.59;29.25;97507.16;5015352;28;20037;-74
2021/12/25 07:53:17;;;;;;;2.85;1.20;;;;;;;11.49;27.00;97507.97;5009998;28;20026;-74
2021/12/25 07:55:47;;;;;;;2.80;1.83;;;;;;;11.20;26.85;97503.09;5014312;28;20508;-74
2021/12/25 07:58:14;;;;;;;4.97;1.98;;;;;;;11.59;25.81;97518.38;5014692;28;20022;-74
2021/12/25 08:00:41;;;;;;;1.98;1.30;;;;;;;12.31;24.54;97522.00;5014767;28;20038;-74
2021/12/25 08:03:07;;;;;;;2.90;1.88;;;;;;;10.53;27.15;97531.03;5013913;28;20030;-74
2021/12/25 08:05:34;;;;;;;1.60;1.50;;;;;;;10.34;27.62;97538.06;4995260;28;20046;-74
2021/12/25 08:08:00;;;;;;;3.67;2.10;;;;;;;10.23;27.58;97533.47;4994997;28;20066;-73
2021/12/25 08:10:27;;;;;;;3.55;1.70;;;;;;;11.13;26.40;97538.66;4994936;28;20398;-74
2021/12/25 08:12:56;;;;;;;3.50;2.03;;;;;;;12.44;24.90;97531.63;4995026;28;20037;-73
2021/12/25 08:15:28;;;;;;;4.65;1.98;;;;;;;11.71;24.91;97529.22;5003924;28;20369;-74
2021/12/25 08:17:56;;;;;;;3.55;1.90;;;;;;;13.57;23.20;97535.13;5014094;28;20029;-74
2021/12/25 08:20:23;;;;;;;4.68;1.85;;;;;;;11.87;25.10;97537.38;5014518;28;20494;-74
2021/12/25 08:22:49;;;;;;;1.90;1.40;;;;;;;13.10;23.71;97546.78;5014461;28;20025;-74
2021/12/25 08:25:16;;;;;;;2.45;1.60;;;;;;;15.09;21.22;97528.91;5014167;28;20061;-74
2021/12/25 08:27:44;;;;;;;1.45;1.35;;;;;;;15.58;20.48;97525.59;5000208;28;20034;-74
2021/12/25 08:30:13;;;;;;;2.15;1.35;;;;;;;17.27;18.85;97517.25;4994842;28;20042;-74
2021/12/25 08:32:41;;;;;;;1.63;1.20;;;;;;;19.06;17.44;97515.25;5001338;28;20030;-74
2021/12/25 08:35:09;;;;;;;1.25;1.13;;;;;;;20.26;16.17;97518.47;5014144;28;20042;-74
2021/12/25 08:37:35;;;;;;;2.50;1.52;;;;;;;20.20;15.66;97518.16;5013623;28;20042;-74
2021/12/25 08:40:03;;;;;;;1.70;1.10;;;;;;;20.23;15.92;97510.97;5013535;28;20104;-74
2021/12/25 08:42:29;;;;;;;2.55;1.55;;;;;;;16.51;17.77;97528.91;5014929;28;20363;-74
2021/12/25 08:47:26;;;;;;;1.77;1.08;;;;;;;14.87;20.02;97546.56;5011106;28;20034;-74
2021/12/25 08:49:53;;;;;;;2.50;1.30;;;;;;;13.08;22.67;97560.94;5011593;28;20038;-74
2021/12/25 08:52:21;;;;;;;4.22;1.85;;;;;;;15.24;20.81;97547.94;5013816;28;20061;-74
2021/12/25 08:54:48;;;;;;;2.55;1.58;;;;;;;12.53;23.96;97555.38;5013647;28;20486;-74
2021/12/25 08:57:16;;;;;;;1.65;1.05;;;;;;;12.09;25.03;97555.03;5013567;28;20061;-74
2021/12/25 08:59:43;;;;;;;1.55;1.15;;;;;;;11.52;25.82;97553.97;5012670;28;20565;-74
2021/12/25 09:02:13;;;;;;;2.17;1.10;;;;;;;10.92;26.35;97560.94;5011707;28;20026;-74
2021/12/25 09:04:41;;;;;;;1.85;1.05;;;;;;;11.87;25.11;97553.06;4994337;28;20026;-74
2021/12/25 09:07:08;;;;;;;3.05;1.23;;;;;;;12.24;24.40;97552.16;5004558;28;20128;-74
2021/12/25 09:09:35;;;;;;;1.30;1.20;;;;;;;12.94;24.04;97557.94;5013353;28;20029;-74
2021/12/25 09:12:02;;;;;;;3.47;1.55;;;;;;;12.57;24.12;97559.75;5013773;28;20037;-74
2021/12/25 09:14:28;;;;;;;3.45;1.58;;;;;;;12.18;24.47;97558.34;5014148;28;20030;-74
2021/12/25 09:16:54;;;;;;;3.00;1.40;;;;;;;11.43;25.32;97553.41;4996844;28;20031;-74
2021/12/25 09:19:21;;;;;;;1.60;0.90;;;;;;;11.71;25.31;97561.44;4993918;28;20034;-74
2021/12/25 09:21:47;;;;;;;2.00;0.90;;;;;;;10.81;25.73;97564.63;4994075;28;20034;-74
2021/12/25 09:24:13;;;;;;;2.22;1.17;;;;;;;10.55;26.10;97561.69;5004828;28;20105;-74
2021/12/25 09:26:39;;;;;;;4.75;1.17;;;;;;;12.46;24.32;97567.84;5010072;28;20416;-74
2021/12/25 09:29:05;;;;;;;2.03;1.08;;;;;;;12.03;24.42;97573.00;4993937;28;20037;-76
2021/12/25 09:31:31;;;;;;;1.52;0.80;;;;;;;13.15;22.40;97568.50;4993820;28;20034;-74
2021/12/25 09:33:57;;;;;;;0.90;0.80;;;;;;;15.07;20.43;97556.16;5005511;28;20025;-74
2021/12/25 09:36:24;;;;;;;1.35;0.77;;;;;;;15.93;18.99;97558.91;4993736;28;20081;-74
2021/12/25 09:38:50;;;;;;;1.15;0.80;;;;;;;18.20;17.59;97546.97;4993976;28;20027;-74
2021/12/25 09:41:17;;;;;;;2.00;0.88;;;;;;;19.60;16.63;97541.28;5004767;28;20034;-75
2021/12/25 09:43:47;;;;;;;1.42;1.00;;;;;;;20.74;15.34;97551.56;5012953;28;20045;-75
2021/12/25 09:46:14;;;;;;;2.08;1.20;;;;;;;21.16;14.91;97546.06;5013426;28;20041;-74
2021/12/25 09:48:40;;;;;;;2.85;1.15;;;;;;;19.35;16.38;97545.53;5013311;28;20545;-74
2021/12/25 09:51:07;;;;;;;1.48;1.05;;;;;;;19.12;16.48;97558.09;5028670;28;20038;-75
2021/12/25 09:53:33;;;;;;;1.77;1.20;;;;;;;17.41;17.66;97560.84;5013097;28;20120;-75
2021/12/25 09:56:01;;;;;;;2.42;1.50;;;;;;;15.86;19.80;97554.16;5013241;28;20034;-75
2021/12/25 09:58:28;;;;;;;1.70;1.30;;;;;;;15.94;19.35;97549.41;5013069;28;20388;-75
2021/12/25 10:00:57;;;;;;;2.05;1.55;;;;;;;15.23;20.94;97551.13;5009629;28;20037;-75
2021/12/25 10:03:40;;;;;;;3.05;1.52;;;;;;;15.73;20.16;97549.34;4993810;28;20061;-75
2021/12/25 10:06:06;;;;;;;3.10;1.45;;;;;;;18.35;17.75;97547.63;4993198;28;20061;-75
2021/12/25 10:08:39;;;;;;;8.70;6.40;;;;;;;19.02;17.33;97527.63;4994314;28;20445;-75
2021/12/25 10:11:05;;;;;;;3.58;1.70;;;;;;;17.18;18.86;97537.13;4997652;28;20033;-75
2021/12/25 10:13:37;;;;;;;2.08;1.65;;;;;;;16.09;19.87;97523.34;5002038;28;20033;-74
2021/12/25 10:16:27;;;;;;;3.95;2.95;;;;;;;17.23;18.42;97508.16;5014375;28;20045;-74
2021/12/25 10:19:14;;;;;;;7.05;5.07;;;;;;;18.82;17.85;97518.28;5016724;28;20042;-75
2021/12/25 10:21:40;;;;;;;5.57;2.42;;;;;;;18.96;16.38;97513.34;5016651;28;20069;-75
2021/12/25 10:24:10;;;;;;;3.00;1.77;;;;;;;19.44;16.31;97516.00;5016762;28;20489;-75
2021/12/25 10:26:38;;;;;;;2.97;2.00;;;;;;;20.25;16.11;97503.78;5015102;28;20030;-75
2021/12/25 10:29:21;;;;;;;5.75;2.88;;;;;;;20.65;15.05;97516.63;5011581;28;20077;-75
2021/12/25 10:31:51;;;;;;;11.43;4.53;;;;;;;19.99;15.70;97513.69;5016483;28;20458;-74
2021/12/25 10:34:20;;;;;;;6.00;3.08;;;;;;;20.13;15.60;97534.19;5016215;28;20084;-75
2021/12/25 10:36:46;;;;;;;3.10;1.90;;;;;;;20.60;15.93;97519.94;5009378;28;20089;-76
2021/12/25 10:39:17;;;;;;;7.05;3.28;;;;;;;20.70;15.03;97523.72;5016798;28;20038;-75
2021/12/25 10:41:54;;;;;;;9.38;5.10;;;;;;;20.42;14.85;97521.44;5016629;28;20026;-75
2021/12/25 10:44:22;;;;;;;10.25;4.75;;;;;;;19.62;15.80;97518.59;5016583;28;20422;-75
2021/12/25 10:46:57;;;;;;;4.00;2.70;;;;;;;17.89;17.52;97531.28;5016548;28;20026;-74
2021/12/25 10:49:30;;;;;;;4.78;2.45;;;;;;;18.48;17.10;97532.09;5015939;28;20054;-75
2021/12/25 10:52:09;;;;;;;9.65;4.20;;;;;;;18.93;16.88;97528.09;5015826;28;20022;-75
2021/12/25 10:54:43;;;;;;;4.22;2.13;;;;;;;16.90;17.97;97539.16;5016119;28;20053;-74
2021/12/25 10:57:10;;;;;;;6.97;2.72;;;;;;;15.65;19.35;97539.44;5016222;28;20030;-74
2021/12/25 10:59:47;;;;;;;3.35;2.00;;;;;;;17.19;18.30;97532.38;5012694;28;20022;-75
2021/12/25 11:02:36;;;;;;;5.30;2.40;;;;;;;16.98;17.74;97544.31;4996637;28;20034;-74
2021/12/25 11:05:23;;;;;;;5.05;2.63;;;;;;;15.36;19.02;97543.25;4998349;28;20031;-75
2021/12/25 11:08:04;;;;;;;8.05;2.40;;;;;;;17.91;17.60;97537.22;5015556;28;20045;-74
2021/12/25 11:10:30;;;;;;;5.35;2.78;;;;;;;19.21;16.19;97524.22;5015936;28;20042;-74
2021/12/25 11:12:59;;;;;;;3.42;2.35;;;;;;;20.09;15.45;97528.69;5016058;28;20382;-75
2021/12/25 11:15:32;;;;;;;4.95;3.05;;;;;;;20.24;15.15;97532.06;5014233;28;20034;-74
2021/12/25 11:18:06;;;;;;;5.47;3.08;;;;;;;16.52;17.76;97533.25;5015820;28;20045;-75
2021/12/25 11:20:36;;;;;;;4.82;2.90;;;;;;;16.96;18.11;97538.38;5011282;28;20050;-75
2021/12/25 11:23:05;;;;;;;4.38;2.28;;;;;;;16.46;18.31;97545.91;5004490;28;20058;-74
2021/12/25 11:25:33;;;;;;;6.63;2.63;;;;;;;13.89;20.85;97544.53;5030688;28;20033;-74
2021/12/25 11:28:00;;;;;;;3.45;2.30;;;;;;;13.98;20.57;97544.25;5015443;28;20105;-74
2021/12/25 11:30:32;;;;;;;4.63;2.20;;;;;;;14.49;20.61;97532.09;5029804;28;20042;-75
2021/12/25 11:32:58;;;;;;;5.85;2.78;;;;;;;14.12;21.18;97534.13;5015372;28;20026;-74
2021/12/25 11:35:25;;;;;;;6.63;2.70;;;;;;;15.54;19.71;97531.09;5013131;28;20121;-74
2021/12/25 11:37:54;;;;;;;3.05;2.30;;;;;;;17.75;17.03;97534.13;5014060;28;20121;-74
2021/12/25 11:40:25;;;;;;;6.60;4.85;;;;;;;18.63;16.43;97517.66;5015361;28;20033;-74
2021/12/25 11:42:54;;;;;;;4.70;3.30;;;;;;;18.77;16.36;97513.94;5015444;28;20077;-74
2021/12/25 11:45:26;;;;;;;8.68;3.58;;;;;;;15.38;19.12;97524.31;5015443;28;20578;-74
2021/12/25 11:47:55;;;;;;;5.03;2.67;;;;;;;15.10;19.54;97523.00;5030100;28;20053;-74
2021/12/25 11:50:41;;;;;;;5.55;2.88;;;;;;;15.28;19.21;97516.75;5015105;28;20394;-74
2021/12/25 11:53:28;;;;;;;7.88;3.10;;;;;;;15.66;18.80;97516.16;5015400;28;20038;-74
2021/12/25 11:58:52;;;;;;;4.43;2.20;;;;;;;17.99;16.91;97515.75;4997460;28;20038;-74
2021/12/25 12:01:35;;;;;;;4.93;2.60;;;;;;;16.36;17.97;97523.75;4995383;28;20494;-74
2021/12/25 12:04:11;;;;;;;3.65;2.10;;;;;;;16.33;18.02;97530.88;4995510;28;20064;-74
2021/12/25 12:06:51;;;;;;;7.05;2.25;;;;;;;17.85;16.77;97536.84;4995173;28;20126;-74
2021/12/25 12:09:28;;;;;;;3.85;2.03;;;;;;;15.60;18.86;97540.63;4995201;28;20037;-76
2021/12/25 12:12:27;;;;;;;5.75;2.80;;;;;;;14.11;19.46;97549.09;4995395;28;20031;-76
2021/12/25 12:15:06;;;;;;;5.03;2.20;;;;;;;12.17;22.05;97559.50;5009852;28;20059;-76
2021/12/25 12:17:32;;;;;;;5.20;2.65;;;;;;;12.69;22.40;97565.06;5021805;28;20030;-76
2021/12/25 12:20:03;;;;;;;6.75;2.22;;;;;;;13.95;20.52;97556.84;5014779;28;20034;-76
2021/12/25 12:28:01;;;;;;;3.47;1.98;;;;;;;15.36;18.05;97557.09;5015113;28;20133;-76
2021/12/25 12:30:39;;;;;;;3.40;2.20;;;;;;;13.97;19.69;97560.00;5012706;28;20042;-76
2021/12/25 12:33:11;;;;;;;9.60;3.17;;;;;;;13.88;20.09;97565.03;5014078;28;20042;-76
2021/12/25 12:35:39;;;;;;;6.30;2.45;;;;;;;13.61;20.80;97567.09;5013037;28;20498;-76
2021/12/25 12:38:28;;;;;;;4.40;2.35;;;;;;;12.97;20.53;97570.19;5014247;28;20034;-76
2021/12/25 12:41:19;;;;;;;4.70;2.67;;;;;;;13.40;20.41;97563.28;5014333;28;20026;-76
2021/12/25 12:44:03;;;;;;;;;;;;;;;13.71;20.05;97574.72;5014555;28;20029;-76
2021/12/25 12:47:18;;;;;;;5.40;2.13;;;;;;;14.71;19.27;97560.66;5013782;28;19967;-76
2021/12/25 12:49:49;;;;;;;4.50;2.10;;;;;;;14.75;19.30;97566.22;5011663;28;20575;-76
2021/12/25 12:52:21;;;;;;;7.05;2.05;;;;;;;15.43;19.08;97576.47;5014612;28;20470;-76
2021/12/25 12:55:09;;;;;;;4.80;2.33;;;;;;;16.22;17.81;97571.59;5013857;28;20540;-76
2021/12/25 12:57:43;;;;;;;3.65;2.20;;;;;;;16.19;17.73;97566.06;5009170;28;20400;-76
2021/12/25 13:00:22;;;;;;;6.63;2.38;;;;;;;16.93;16.93;97575.22;4994506;28;20124;-76